Time;durP1;ratioP1;P1;durP2;ratioP2;P2;SDS_P1;SDS_P2;PMS_P1;PMS_P2;Temp;Humidity;BMP_temperature;BMP_pressure;BME280_temperature;BME280_humidity;BME280_pressure;Samples;Min_cycle;Max_cycle;Signal;HPM_P1;HPM_P2
2022/03/16 00:01:25;;;;;;;;;24.00;21.33;;;;;14.38;90.96;101281.72;6194979;22;45291;-83
2022/03/16 00:03:50;;;;;;;;;23.67;21.00;;;;;14.39;90.96;101283.53;6192467;22;45324;-82
2022/03/16 00:06:15;;;;;;;;;25.67;24.67;;;;;14.43;90.74;101284.47;6221817;22;46099;-83
2022/03/16 00:08:41;;;;;;;;;26.00;22.67;;;;;14.42;90.75;101283.53;6194332;22;45336;-83
2022/03/16 00:11:06;;;;;;;;;20.33;19.33;;;;;14.37;90.73;101280.84;6220416;22;45746;-83
2022/03/16 00:13:33;;;;;;;;;23.00;20.67;;;;;14.35;91.14;101279.03;6192944;22;45348;-83
2022/03/16 00:15:59;;;;;;;;;28.00;24.67;;;;;14.40;91.57;101291.56;6219967;22;45436;-83
2022/03/16 00:18:26;;;;;;;;;23.67;22.67;;;;;14.47;91.68;101287.16;6219975;22;45390;-83
2022/03/16 00:20:52;;;;;;;;;27.67;25.67;;;;;14.42;91.30;101294.25;6220554;22;45472;-83
2022/03/16 00:23:17;;;;;;;;;22.00;20.00;;;;;14.39;90.99;101288.88;6220380;22;45434;-82
2022/03/16 00:25:56;;;;;;;;;26.33;21.67;;;;;14.57;90.67;101282.78;6164935;23;46927;-83
2022/03/16 00:28:22;;;;;;;;;24.67;23.00;;;;;14.44;90.60;101284.47;6190591;23;45354;-83
2022/03/16 00:30:47;;;;;;;;;22.00;19.33;;;;;14.48;90.45;101285.38;6192026;23;45687;-83
2022/03/16 00:33:12;;;;;;;;;32.00;27.67;;;;;14.51;90.42;101283.59;6192720;23;45370;-81
2022/03/16 00:35:38;;;;;;;;;26.33;25.67;;;;;14.55;89.94;101280.06;6191730;23;45213;-81
2022/03/16 00:38:04;;;;;;;;;21.67;21.33;;;;;14.53;90.31;101281.84;6191328;23;45686;-82
2022/03/16 00:40:31;;;;;;;;;25.67;22.33;;;;;14.65;90.04;101285.53;6191565;23;45385;-82
2022/03/16 00:42:59;;;;;;;;;21.00;19.00;;;;;14.70;89.93;101290.00;6190593;23;45612;-82
2022/03/16 00:45:24;;;;;;;;;28.33;24.67;;;;;14.59;89.63;101281.91;6188723;23;47326;-83
2022/03/16 00:47:50;;;;;;;;;24.67;23.33;;;;;14.54;89.62;101267.59;6192113;22;45396;-83
2022/03/16 00:50:16;;;;;;;;;26.33;26.33;;;;;14.58;89.20;101273.88;6164844;23;45357;-83
2022/03/16 00:52:41;;;;;;;;;26.33;25.33;;;;;14.57;88.97;101277.44;6164416;23;45328;-83
2022/03/16 00:55:07;;;;;;;;;27.00;25.67;;;;;14.59;89.13;101263.19;6190446;23;45355;-83
2022/03/16 00:57:33;;;;;;;;;28.00;24.67;;;;;14.60;89.11;101270.34;6191367;23;45323;-83
2022/03/16 01:00:01;;;;;;;;;24.00;23.67;;;;;14.59;88.72;101257.81;6164327;23;45361;-82
2022/03/16 01:02:27;;;;;;;;;24.67;24.00;;;;;14.59;88.99;101265.84;6164663;23;45355;-82
2022/03/16 01:04:53;;;;;;;;;25.67;25.00;;;;;14.65;88.87;101261.44;6164079;23;47090;-82
2022/03/16 01:07:18;;;;;;;;;24.67;24.33;;;;;14.55;88.87;101253.31;6189953;23;45843;-82
2022/03/16 01:09:44;;;;;;;;;25.67;24.67;;;;;14.58;88.88;101256.03;6191203;23;45379;-81
2022/03/16 01:12:11;;;;;;;;;27.33;25.00;;;;;14.60;88.93;101239.97;6164687;23;45421;-82
2022/03/16 01:14:36;;;;;;;;;26.67;24.33;;;;;14.52;88.67;101247.94;6191371;23;45569;-82
2022/03/16 01:17:02;;;;;;;;;26.33;22.33;;;;;14.51;89.09;101245.25;6193113;23;45415;-82
2022/03/16 01:19:29;;;;;;;;;21.33;18.33;;;;;14.48;89.09;101240.78;6167707;23;45465;-82
2022/03/16 01:21:55;;;;;;;;;19.67;19.67;;;;;14.47;89.16;101233.63;6194394;22;45449;-82
2022/03/16 01:24:20;;;;;;;;;24.00;23.33;;;;;14.47;88.92;101230.06;6173617;22;46962;-82
2022/03/16 01:26:46;;;;;;;;;23.67;22.67;;;;;14.48;89.14;101235.44;6224010;22;45643;-81
2022/03/16 01:29:11;;;;;;;;;25.67;22.00;;;;;14.48;89.10;101231.84;6225039;22;45372;-82
2022/03/16 01:31:36;;;;;;;;;29.00;24.33;;;;;14.39;89.16;101221.97;6224593;22;45355;-82
2022/03/16 01:34:02;;;;;;;;;26.33;23.00;;;;;14.36;89.37;101213.91;6224107;22;45341;-82
2022/03/16 01:36:28;;;;;;;;;26.33;22.00;;;;;14.34;89.47;101219.28;6220212;22;45774;-82
2022/03/16 01:38:53;;;;;;;;;20.00;19.00;;;;;14.34;89.64;101213.94;6222558;22;45737;-81
2022/03/16 01:41:19;;;;;;;;;25.00;19.67;;;;;14.34;89.53;101213.03;6217383;22;45386;-82
2022/03/16 01:43:44;;;;;;;;;27.33;22.67;;;;;14.33;89.37;101217.47;6196119;22;46570;-83
2022/03/16 01:46:09;;;;;;;;;24.33;24.00;;;;;14.34;89.20;101223.72;6194146;22;45338;-82
2022/03/16 01:48:35;;;;;;;;;22.67;22.00;;;;;14.33;89.07;101213.91;6222569;22;45679;-81
2022/03/16 01:51:00;;;;;;;;;23.33;21.67;;;;;14.29;89.26;101202.31;6194462;22;45913;-82
2022/03/16 01:53:26;;;;;;;;;24.67;20.00;;;;;14.30;89.31;101222.84;6221529;22;45822;-81
2022/03/16 01:55:52;;;;;;;;;26.33;21.67;;;;;14.32;89.08;101222.81;6192112;22;45400;-82
2022/03/16 01:58:18;;;;;;;;;21.67;19.33;;;;;14.27;89.27;101214.78;6220398;22;45697;-82
2022/03/16 02:00:44;;;;;;;;;19.33;19.33;;;;;14.34;88.91;101221.97;6221867;22;45596;-82
2022/03/16 02:03:09;;;;;;;;;22.67;19.67;;;;;14.31;88.93;101213.03;6193819;22;46705;-82
2022/03/16 02:05:39;;;;;;;;;15.33;15.33;;;;;14.47;88.73;101220.25;6223800;22;45547;-82
2022/03/16 02:08:05;;;;;;;;;23.67;20.33;;;;;14.33;88.74;101219.28;6222281;22;45394;-82
2022/03/16 02:10:31;;;;;;;;;20.00;20.00;;;;;14.33;88.62;101222.84;6194802;22;45871;-82
2022/03/16 02:12:58;;;;;;;;;22.33;21.00;;;;;14.43;88.67;101221.13;6195251;22;47452;-82
2022/03/16 02:15:24;;;;;;;;;21.00;21.00;;;;;14.28;88.24;101215.66;6220939;22;45872;-82
2022/03/16 02:17:53;;;;;;;;;19.67;18.33;;;;;14.33;88.17;101216.59;6193842;22;45370;-82
2022/03/16 02:20:18;;;;;;;;;23.33;22.33;;;;;14.28;88.43;101212.97;6193148;22;45847;-82
2022/03/16 02:23:05;;;;;;;;;21.00;19.00;;;;;14.47;87.72;101220.25;6194009;22;47413;-82
2022/03/16 02:25:32;;;;;;;;;23.00;17.00;;;;;14.30;88.37;101220.16;6194044;22;45168;-82
2022/03/16 02:27:58;;;;;;;;;18.00;17.00;;;;;14.28;88.57;101212.97;6222657;22;45366;-82
2022/03/16 02:30:25;;;;;;;;;17.33;16.00;;;;;14.26;88.05;101206.72;6223989;22;44760;-82
2022/03/16 02:32:51;;;;;;;;;19.67;19.67;;;;;14.20;88.05;101196.91;6223162;22;45605;-82
2022/03/16 02:35:18;;;;;;;;;20.00;17.00;;;;;14.29;88.33;101209.44;6222606;22;45467;-82
2022/03/16 02:37:43;;;;;;;;;22.33;22.33;;;;;14.20;88.15;101208.50;6222221;22;45410;-82
2022/03/16 02:40:11;;;;;;;;;23.67;20.33;;;;;14.24;88.14;101201.38;6194754;22;45673;-82
2022/03/16 02:42:37;;;;;;;;;14.33;14.33;;;;;14.11;87.96;101197.72;6192491;22;47159;-83
2022/03/16 02:45:05;;;;;;;;;19.33;18.33;;;;;14.16;88.22;101195.09;6194539;22;45768;-83
2022/03/16 02:47:30;;;;;;;;;26.00;19.00;;;;;14.10;88.18;101206.66;6195115;22;45516;-83
2022/03/16 02:49:56;;;;;;;;;22.67;18.33;;;;;14.09;88.11;101198.59;6222348;22;45370;-83
2022/03/16 02:52:22;;;;;;;;;23.67;19.00;;;;;14.03;88.13;101191.41;6196601;22;47079;-83
2022/03/16 02:54:49;;;;;;;;;25.00;23.33;;;;;14.04;88.10;101193.22;6195049;22;45600;-83
2022/03/16 02:57:16;;;;;;;;;19.33;18.67;;;;;13.98;88.70;101186.06;6194910;22;45342;-83
2022/03/16 02:59:42;;;;;;;;;22.33;21.00;;;;;13.99;88.21;101195.84;6196043;22;45552;-83
2022/03/16 03:02:07;;;;;;;;;25.33;22.67;;;;;13.98;88.09;101201.22;6223966;22;45480;-83
2022/03/16 03:04:33;;;;;;;;;19.33;18.33;;;;;13.97;88.20;101199.41;6197357;22;45689;-83
2022/03/16 03:07:39;;;;;;;;;19.33;17.33;;;;;14.17;87.86;101203.09;6222707;22;45349;-83
2022/03/16 03:10:04;;;;;;;;;19.33;18.67;;;;;13.95;88.71;101207.41;6197562;22;45390;-83
2022/03/16 03:12:34;;;;;;;;;21.00;20.00;;;;;14.09;88.72;101203.94;6197339;22;48164;-83
2022/03/16 03:15:01;;;;;;;;;16.67;16.33;;;;;13.96;88.39;101208.31;6197412;22;45814;-83
2022/03/16 03:17:26;;;;;;;;;20.67;19.67;;;;;13.95;88.75;101202.06;6197296;22;45506;-83
2022/03/16 03:20:11;;;;;;;;;17.67;15.00;;;;;14.11;88.12;101205.75;6195041;22;45450;-83
2022/03/16 03:22:37;;;;;;;;;25.00;21.00;;;;;13.96;88.49;101200.31;6193891;22;46930;-83
2022/03/16 03:25:03;;;;;;;;;27.67;24.67;;;;;14.00;88.41;101204.78;6189810;22;45281;-83
2022/03/16 03:27:30;;;;;;;;;26.67;24.67;;;;;14.04;88.61;101201.25;6218895;22;44795;-83
2022/03/16 03:29:56;;;;;;;;;23.33;22.00;;;;;14.05;87.93;101186.97;6218920;22;45443;-83
2022/03/16 03:32:22;;;;;;;;;22.67;20.33;;;;;14.03;88.13;101180.72;6191880;22;47056;-83
2022/03/16 03:34:50;;;;;;;;;28.33;27.33;;;;;14.06;88.03;101187.88;6218331;22;45421;-83
2022/03/16 03:37:15;;;;;;;;;26.00;26.00;;;;;14.05;88.06;101192.31;6193273;22;45341;-83
2022/03/16 03:39:41;;;;;;;;;32.00;26.33;;;;;14.06;87.96;101204.84;6194236;22;45504;-84
2022/03/16 03:42:07;;;;;;;;;26.33;24.67;;;;;14.13;88.12;101203.09;6192656;22;48545;-83
2022/03/16 03:44:32;;;;;;;;;31.33;26.67;;;;;13.98;87.88;101193.19;6218086;22;45639;-83
2022/03/16 03:46:58;;;;;;;;;26.67;25.00;;;;;13.97;88.39;101204.75;6220700;22;45693;-83
2022/03/16 03:49:23;;;;;;;;;25.67;24.00;;;;;13.97;88.71;101196.72;6193542;22;45627;-83
2022/03/16 03:51:49;;;;;;;;;26.67;26.67;;;;;13.94;89.15;101199.41;6219160;22;45586;-83
2022/03/16 03:54:15;;;;;;;;;34.67;32.33;;;;;14.01;89.56;101201.22;6221673;22;44864;-83
2022/03/16 03:56:41;;;;;;;;;25.33;25.33;;;;;13.87;90.21;101201.09;6194169;22;45446;-83
2022/03/16 03:59:07;;;;;;;;;28.00;24.00;;;;;13.88;90.18;101202.03;6192775;22;45364;-83
2022/03/16 04:01:32;;;;;;;;;31.00;30.33;;;;;13.80;90.20;101192.16;6220122;22;45413;-83
2022/03/16 04:03:57;;;;;;;;;39.67;32.00;;;;;13.80;90.53;101186.81;6220219;22;45367;-83
2022/03/16 04:06:24;;;;;;;;;30.00;24.67;;;;;13.87;91.56;101192.19;6221233;22;45373;-83
2022/03/16 04:08:49;;;;;;;;;30.33;29.00;;;;;13.71;91.71;101180.47;6193040;22;45428;-83
2022/03/16 04:11:15;;;;;;;;;32.33;30.67;;;;;13.67;92.53;101184.91;6194593;22;47108;-83
2022/03/16 04:13:40;;;;;;;;;31.67;29.67;;;;;13.62;93.26;101181.31;6194006;22;45532;-83
2022/03/16 04:16:05;;;;;;;;;27.33;24.67;;;;;13.62;92.92;101181.31;6221307;22;45925;-83
2022/03/16 04:18:31;;;;;;;;;31.33;29.00;;;;;13.62;93.58;101178.63;6194637;22;45315;-83
2022/03/16 04:20:56;;;;;;;;;31.00;28.00;;;;;13.59;93.42;101170.56;6193055;22;47997;-83
2022/03/16 04:23:23;;;;;;;;;36.33;33.67;;;;;13.53;93.59;101155.41;6221287;22;44741;-82
2022/03/16 04:25:48;;;;;;;;;29.00;26.00;;;;;13.55;93.51;101166.09;6191531;22;45966;-83
2022/03/16 04:28:14;;;;;;;;;27.00;25.00;;;;;13.54;92.94;101161.66;6218776;22;45572;-82
2022/03/16 04:30:39;;;;;;;;;27.00;26.00;;;;;13.49;93.77;101164.28;6192720;22;47192;-82
2022/03/16 04:33:04;;;;;;;;;19.67;19.00;;;;;13.50;94.30;101166.06;6219154;22;45374;-81
2022/03/16 04:35:30;;;;;;;;;29.33;25.67;;;;;13.43;94.36;101152.63;6192969;22;45609;-82
2022/03/16 04:37:56;;;;;;;;;28.33;26.67;;;;;13.42;94.48;101145.50;6220164;22;45319;-82
2022/03/16 04:40:21;;;;;;;;;30.00;28.00;;;;;13.40;94.49;101141.03;6219041;22;45454;-82
2022/03/16 04:42:46;;;;;;;;;26.00;25.00;;;;;13.45;94.93;101140.19;6219235;22;45589;-82
2022/03/16 04:45:12;;;;;;;;;28.00;26.67;;;;;13.39;95.17;101144.59;6192524;22;45390;-82
2022/03/16 04:47:38;;;;;;;;;29.67;29.00;;;;;13.37;95.51;101142.78;6193404;22;45542;-82
2022/03/16 04:50:05;;;;;;;;;32.33;24.67;;;;;13.37;95.61;101137.44;6218467;22;45362;-82
2022/03/16 04:52:31;;;;;;;;;30.67;29.33;;;;;13.29;95.81;101134.72;6192366;22;45331;-82
2022/03/16 04:54:56;;;;;;;;;30.00;28.00;;;;;13.33;96.16;101147.22;6192344;22;45271;-82
2022/03/16 04:57:21;;;;;;;;;24.67;21.67;;;;;13.26;95.97;101148.00;6191599;22;45427;-82
2022/03/16 04:59:48;;;;;;;;;31.00;29.00;;;;;13.32;96.13;101141.84;6220197;22;45339;-82
2022/03/16 05:02:13;;;;;;;;;34.33;32.33;;;;;13.21;96.26;101142.63;6221822;22;45347;-82
2022/03/16 05:04:39;;;;;;;;;26.33;25.00;;;;;13.28;95.42;101154.25;6193942;22;45766;-82
2022/03/16 05:07:04;;;;;;;;;31.67;30.33;;;;;13.29;96.08;101160.47;6221906;22;45309;-82
2022/03/16 05:09:29;;;;;;;;;36.33;29.67;;;;;13.23;96.37;101145.31;6194718;22;47943;-82
2022/03/16 05:12:39;;;;;;;;;29.33;29.00;;;;;13.42;96.00;101142.84;6194078;22;45436;-82
2022/03/16 05:15:10;;;;;;;;;31.00;30.33;;;;;13.26;96.78;101134.63;6195689;22;45503;-82
2022/03/16 05:17:36;;;;;;;;;29.00;29.00;;;;;13.20;96.82;101140.81;6222442;22;45359;-82
2022/03/16 05:20:03;;;;;;;;;34.33;31.67;;;;;13.23;96.77;101139.97;6221735;22;46261;-82
2022/03/16 05:22:28;;;;;;;;;31.33;29.00;;;;;13.16;97.37;101144.34;6193636;22;45993;-82
2022/03/16 05:24:54;;;;;;;;;37.00;34.33;;;;;13.16;98.31;101151.44;6193938;22;45440;-82
2022/03/16 05:27:20;;;;;;;;;39.00;32.00;;;;;13.15;97.96;101157.69;6222177;22;45361;-82
2022/03/16 05:29:46;;;;;;;;;37.33;32.33;;;;;13.13;98.31;101159.44;6226679;22;45848;-83
2022/03/16 05:32:11;;;;;;;;;35.00;30.67;;;;;13.13;98.56;101164.78;6223621;22;45327;-81
2022/03/16 05:34:37;;;;;;;;;36.33;32.00;;;;;13.13;98.49;101157.66;6224057;22;45328;-83
2022/03/16 05:37:09;;;;;;;;;35.00;32.33;;;;;13.26;98.05;101152.44;6197873;22;45495;-83
2022/03/16 05:39:35;;;;;;;;;33.33;30.33;;;;;13.15;98.33;101171.94;6223822;22;45363;-83
2022/03/16 05:42:00;;;;;;;;;29.33;29.00;;;;;13.19;97.89;101170.19;6224974;22;44933;-84
2022/03/16 05:44:26;;;;;;;;;34.67;33.00;;;;;13.16;98.61;101171.03;6224314;22;45335;-81
2022/03/16 05:46:53;;;;;;;;;36.00;33.67;;;;;13.12;98.42;101171.88;6223334;22;45065;-81
2022/03/16 05:49:18;;;;;;;;;33.67;32.00;;;;;13.13;98.03;101172.81;6223878;22;45298;-82
2022/03/16 05:51:44;;;;;;;;;34.33;30.00;;;;;13.09;98.26;101168.28;6222578;22;45393;-83
2022/03/16 05:54:09;;;;;;;;;41.67;38.00;;;;;13.06;97.88;101162.94;6195666;22;45865;-82
2022/03/16 05:56:35;;;;;;;;;37.33;30.67;;;;;13.12;98.51;101163.00;6222402;22;45352;-82
2022/03/16 05:59:00;;;;;;;;;38.00;34.33;;;;;13.10;98.53;101164.75;6221901;22;45420;-82
2022/03/16 06:01:26;;;;;;;;;38.33;34.33;;;;;13.07;98.51;101170.03;6220517;22;45413;-82
2022/03/16 06:03:51;;;;;;;;;31.33;31.33;;;;;13.04;98.61;101164.69;6220397;22;45390;-83
2022/03/16 06:06:20;;;;;;;;;32.67;32.33;;;;;13.05;98.43;101167.38;6193555;22;45496;-83
2022/03/16 06:08:45;;;;;;;;;35.67;32.00;;;;;12.99;98.48;101160.19;6192530;22;48134;-83
2022/03/16 06:11:10;;;;;;;;;34.67;29.00;;;;;13.06;98.14;101173.59;6192823;22;45395;-82
2022/03/16 06:13:36;;;;;;;;;36.00;33.00;;;;;13.08;98.49;101179.84;6224156;22;45311;-82
2022/03/16 06:16:01;;;;;;;;;34.00;30.33;;;;;13.07;98.32;101184.31;6223621;22;45400;-82
2022/03/16 06:18:28;;;;;;;;;32.67;26.67;;;;;13.09;98.43;101170.94;6221827;22;46752;-82
2022/03/16 06:20:53;;;;;;;;;40.00;35.67;;;;;13.03;99.00;101166.47;6223144;22;45422;-82
2022/03/16 06:23:18;;;;;;;;;43.33;36.67;;;;;13.02;98.96;101160.22;6195883;22;45785;-82
2022/03/16 06:25:44;;;;;;;;;37.00;36.00;;;;;13.04;98.52;101170.03;6196481;22;45430;-84
2022/03/16 06:28:15;;;;;;;;;11.00;5.67;;;;;13.05;98.47;101171.78;6223443;22;46100;-82
2022/03/16 06:30:41;;;;;;;;;31.67;30.00;;;;;13.05;98.67;101187.81;6225496;22;45346;-84
2022/03/16 06:33:06;;;;;;;;;28.33;24.33;;;;;13.04;98.67;101186.03;6197359;22;46184;-82
2022/03/16 06:35:32;;;;;;;;;33.00;29.33;;;;;13.04;99.00;101192.28;6196551;22;45722;-83
2022/03/16 06:37:58;;;;;;;;;36.00;34.33;;;;;13.02;99.07;101189.56;6224481;22;45342;-84
2022/03/16 06:40:23;;;;;;;;;40.67;37.00;;;;;12.98;98.52;101186.88;6223516;22;45764;-83
2022/03/16 06:42:54;;;;;;;;;41.00;35.33;;;;;13.07;98.62;101195.00;6197460;22;45299;-84
2022/03/16 06:45:20;;;;;;;;;36.00;30.33;;;;;13.02;99.07;101205.59;6225385;22;45366;-84
2022/03/16 06:47:47;;;;;;;;;27.67;27.67;;;;;13.13;99.15;101205.75;6222891;22;45372;-84
2022/03/16 06:50:13;;;;;;;;;30.00;27.00;;;;;13.04;98.46;101208.28;6196327;22;45331;-84
2022/03/16 06:52:39;;;;;;;;;31.67;30.33;;;;;13.09;98.63;101206.59;6195521;22;45798;-84
2022/03/16 06:55:09;;;;;;;;;40.33;36.00;;;;;13.13;98.59;101218.19;6222419;22;45418;-83
2022/03/16 06:57:35;;;;;;;;;36.67;36.00;;;;;13.05;98.52;101206.50;6198106;22;48249;-83
2022/03/16 07:00:02;;;;;;;;;37.67;35.00;;;;;13.17;98.49;101222.69;6224649;22;45275;-82
2022/03/16 07:02:30;;;;;;;;;32.33;31.33;;;;;13.13;98.66;101221.75;6199546;22;45755;-82
2022/03/16 07:04:55;;;;;;;;;37.00;32.00;;;;;13.09;97.81;101209.25;6199322;22;45407;-84
2022/03/16 07:07:20;;;;;;;;;33.33;31.33;;;;;13.15;97.94;101221.78;6223437;22;47126;-83
2022/03/16 07:09:49;;;;;;;;;40.67;35.00;;;;;13.30;97.47;101215.75;6199427;22;45399;-84
2022/03/16 07:12:27;;;;;;;;;34.00;32.67;;;;;13.18;97.29;101208.44;6201911;22;44787;-84
2022/03/16 07:14:53;;;;;;;;;41.33;36.67;;;;;13.19;97.62;101210.25;6200258;22;45558;-84
2022/03/16 07:17:21;;;;;;;;;38.33;34.33;;;;;13.18;97.43;101209.34;6195705;22;48148;-84
2022/03/16 07:19:47;;;;;;;;;34.33;33.00;;;;;13.18;97.32;101211.13;6195732;22;45819;-83
2022/03/16 07:22:12;;;;;;;;;32.00;30.00;;;;;13.11;97.12;101193.22;6222830;22;45461;-83
2022/03/16 07:24:38;;;;;;;;;40.67;37.00;;;;;13.16;97.74;101202.19;6223444;22;45433;-83
2022/03/16 07:27:05;;;;;;;;;35.33;31.67;;;;;13.12;97.49;101203.94;6197220;22;47088;-83
2022/03/16 07:29:31;;;;;;;;;28.33;26.33;;;;;13.11;97.62;101198.56;6222975;22;45409;-83
2022/03/16 07:31:56;;;;;;;;;34.00;32.33;;;;;13.13;97.79;101202.19;6194559;22;45399;-83
2022/03/16 07:34:22;;;;;;;;;40.67;35.00;;;;;13.13;97.73;101204.84;6193651;22;45581;-86
2022/03/16 07:36:47;;;;;;;;;35.33;32.67;;;;;13.13;97.64;101212.88;6192748;22;45356;-84
2022/03/16 07:39:14;;;;;;;;;38.00;34.67;;;;;13.23;97.95;101206.75;6221974;22;45307;-84
2022/03/16 07:45:03;;;;;;;;;38.67;35.33;;;;;13.23;97.26;101211.16;6222744;22;45328;-84
2022/03/16 07:47:28;;;;;;;;;35.67;32.33;;;;;13.18;97.43;101205.78;6225042;22;45352;-84
2022/03/16 07:49:56;;;;;;;;;37.67;35.33;;;;;13.18;96.86;101205.78;6195600;22;45696;-84
2022/03/16 07:52:21;;;;;;;;;40.67;33.00;;;;;13.17;97.13;101210.22;6195463;22;45449;-83
2022/03/16 07:54:48;;;;;;;;;44.67;36.33;;;;;13.20;97.26;101217.38;6222589;22;45413;-83
2022/03/16 07:57:16;;;;;;;;;41.33;37.00;;;;;13.16;97.25;101199.53;6202674;22;46613;-83
2022/03/16 07:59:42;;;;;;;;;41.33;37.00;;;;;13.11;96.89;101188.81;6221432;22;45841;-83
2022/03/16 08:02:16;;;;;;;;;32.33;31.33;;;;;13.42;96.38;101215.88;6197033;22;45396;-84
2022/03/16 08:08:06;;;;;;;;;38.67;36.67;;;;;13.39;96.47;101208.72;6224468;22;45426;-86
2022/03/16 08:10:32;;;;;;;;;37.67;30.00;;;;;13.19;96.72;101192.44;6194096;22;45616;-84
2022/03/16 08:12:58;;;;;;;;;38.00;34.67;;;;;13.17;96.29;101188.88;6222075;22;45345;-83
2022/03/16 08:15:26;;;;;;;;;41.00;36.00;;;;;13.09;96.26;101165.59;6196898;22;45483;-83
2022/03/16 08:17:57;;;;;;;;;38.00;35.00;;;;;13.35;96.23;101187.28;6224680;22;48580;-85
2022/03/16 08:20:24;;;;;;;;;40.67;34.67;;;;;13.15;96.12;101152.34;6172681;22;44863;-86
2022/03/16 08:22:54;;;;;;;;;40.33;36.33;;;;;13.24;96.28;101187.16;6199221;22;44862;-86
2022/03/16 08:25:19;;;;;;;;;37.33;34.67;;;;;13.27;96.02;101179.19;6198146;22;45473;-86
2022/03/16 08:27:49;;;;;;;;;35.00;35.00;;;;;13.16;95.93;101167.47;6224513;22;45244;-87
2022/03/16 08:30:21;;;;;;;;;37.33;32.67;;;;;13.24;95.44;101170.22;6228953;22;44717;-86
2022/03/16 08:32:47;;;;;;;;;34.67;31.67;;;;;13.36;95.68;101189.97;6175655;22;45325;-86
2022/03/16 08:35:13;;;;;;;;;43.67;36.33;;;;;13.36;95.50;101186.41;6199836;22;45294;-84
2022/03/16 08:37:41;;;;;;;;;38.00;33.67;;;;;13.39;95.21;101170.41;6200907;22;45156;-84
2022/03/16 08:40:20;;;;;;;;;40.33;35.00;;;;;13.67;94.88;101205.41;6178918;22;44898;-85
2022/03/16 08:49:38;;;;;;;;;33.67;32.33;;;;;13.59;93.06;101166.16;6228522;22;44915;-85
2022/03/16 08:52:10;;;;;;;;;35.00;32.00;;;;;13.82;92.71;101207.31;6155751;22;45301;-84
2022/03/16 08:54:55;;;;;;;;;43.00;37.00;;;;;13.79;92.22;101217.13;6185260;22;45346;-85
2022/03/16 08:57:28;;;;;;;;;33.00;31.33;;;;;13.88;91.64;101196.69;6228704;22;45278;-86
2022/03/16 09:00:39;;;;;;;;;36.00;32.33;;;;;14.20;91.42;101245.06;6227411;22;45444;-84
2022/03/16 09:03:10;;;;;;;;;42.33;34.00;;;;;14.09;91.43;101238.72;6201163;22;44870;-86
2022/03/16 09:05:38;;;;;;;;;40.67;36.33;;;;;14.10;90.89;101240.50;6177972;22;45342;-87
2022/03/16 09:08:07;;;;;;;;;39.33;34.33;;;;;14.21;90.49;101250.41;6226862;22;45141;-87
2022/03/16 09:10:57;;;;;;;;;42.33;37.67;;;;;14.03;90.35;101199.44;6193487;22;45276;-86
2022/03/16 09:13:26;;;;;;;;;43.33;37.00;;;;;14.29;90.01;101238.88;6226866;22;44917;-86
2022/03/16 09:15:59;;;;;;;;;42.67;37.67;;;;;14.30;90.02;101227.25;6204704;22;44780;-86
2022/03/16 09:18:26;;;;;;;;;44.67;39.67;;;;;14.27;89.46;101224.59;6202346;22;45395;-85
2022/03/16 09:20:53;;;;;;;;;45.33;37.00;;;;;14.09;89.47;101187.91;6226751;22;45469;-86
2022/03/16 09:23:22;;;;;;;;;40.33;36.33;;;;;14.19;89.38;101189.75;6201867;22;45507;-87
2022/03/16 09:25:50;;;;;;;;;44.00;36.67;;;;;14.40;88.92;101234.47;6228783;22;44824;-85
2022/03/16 09:29:08;;;;;;;;;47.33;39.67;;;;;14.71;88.74;101242.72;6203223;22;44853;-85
2022/03/16 09:35:05;;;;;;;;;39.67;36.33;;;;;14.55;88.36;101197.09;6230183;22;45378;-85
2022/03/16 09:37:40;;;;;;;;;38.00;33.00;;;;;14.71;87.73;101205.25;6203815;22;45403;-85
2022/03/16 09:40:08;;;;;;;;;42.00;37.33;;;;;14.90;87.52;101230.31;6179431;22;44880;-84
2022/03/16 09:42:42;;;;;;;;;42.00;37.00;;;;;14.98;87.06;101221.41;6201269;22;46590;-86
2022/03/16 09:45:26;;;;;;;;;41.67;36.00;;;;;14.91;87.13;101230.31;6205080;22;44875;-86
2022/03/16 09:48:05;;;;;;;;;50.00;39.33;;;;;15.03;85.99;101229.47;6204890;22;44792;-86
2022/03/16 09:50:41;;;;;;;;;46.33;37.67;;;;;15.02;86.34;101221.44;6212592;22;44983;-83
2022/03/16 09:53:13;;;;;;;;;44.67;37.33;;;;;14.85;86.34;101187.44;6226918;22;45336;-83
2022/03/16 09:55:42;;;;;;;;;36.67;35.00;;;;;15.11;85.41;101218.78;6223417;22;45890;-87
2022/03/16 09:58:13;;;;;;;;;40.00;36.00;;;;;14.81;85.52;101182.97;6222248;22;45344;-85
2022/03/16 10:00:39;;;;;;;;;42.00;37.33;;;;;14.85;85.61;101190.13;6198538;22;45521;-86
2022/03/16 10:03:08;;;;;;;;;45.00;38.67;;;;;15.28;85.37;101225.06;6199380;22;45708;-86
2022/03/16 10:05:49;;;;;;;;;42.67;37.33;;;;;15.27;84.97;101200.94;6202299;22;45587;-86
2022/03/16 10:08:26;;;;;;;;;44.00;37.33;;;;;15.10;84.22;101177.69;6204014;22;45378;-87
2022/03/16 10:14:14;;;;;;;;;40.00;37.00;;;;;15.38;83.78;101200.06;6230085;22;45339;-84
2022/03/16 10:20:11;;;;;;;;;38.00;34.33;;;;;15.48;83.70;101197.41;6229910;22;45509;-86
2022/03/16 10:22:41;;;;;;;;;42.33;34.00;;;;;15.80;83.30;101219.81;6204174;22;44919;-84
2022/03/16 10:25:18;;;;;;;;;42.67;36.00;;;;;15.83;82.02;101207.28;6202950;22;47191;-86
2022/03/16 10:27:48;;;;;;;;;36.00;33.67;;;;;15.63;81.58;101167.03;6226019;22;45390;-87
2022/03/16 10:30:27;;;;;;;;;41.00;36.33;;;;;15.80;82.21;101198.34;6177380;22;45409;-87
2022/03/16 10:33:16;;;;;;;;;45.33;35.00;;;;;15.83;81.42;101192.09;6204375;22;44848;-88
2022/03/16 10:36:27;;;;;;;;;41.00;34.33;;;;;16.02;80.75;101214.44;6202441;22;45264;-84
2022/03/16 10:39:11;;;;;;;;;36.67;34.33;;;;;16.02;81.22;101208.16;6136312;23;45860;-85
2022/03/16 10:48:43;;;;;;;;;35.33;34.00;;;;;16.14;79.15;101184.91;6050533;23;45366;-86
2022/03/16 10:51:27;;;;;;;;;36.67;30.67;;;;;16.25;79.31;101186.69;6050159;23;45658;-84
2022/03/16 10:57:38;;;;;;;;;43.67;35.33;;;;;16.20;78.22;101138.41;6048657;23;45893;-87
2022/03/16 11:08:18;;;;;;;;;33.33;30.33;;;;;16.62;77.60;101124.81;6205707;22;45346;-87
2022/03/16 11:14:47;;;;;;;;;39.33;36.00;;;;;17.08;75.56;101156.84;6176932;23;45989;-86
2022/03/16 11:17:30;;;;;;;;;40.67;35.33;;;;;16.97;75.34;101149.72;6194600;23;45395;-86
2022/03/16 11:26:36;;;;;;;;;36.00;34.33;;;;;17.40;74.60;101153.94;6288894;22;45368;-85
2022/03/16 11:29:53;;;;;;;;;44.00;37.00;;;;;17.37;72.72;101117.22;6257102;22;45638;-85
2022/03/16 11:33:15;;;;;;;;;34.00;32.33;;;;;17.62;72.37;101137.63;6173887;23;45302;-86
2022/03/16 11:36:06;;;;;;;;;38.67;34.00;;;;;17.60;70.62;101125.06;6188674;23;45278;-84
2022/03/16 11:38:49;;;;;;;;;36.67;32.00;;;;;17.34;71.31;101100.22;6189282;23;45398;-87
2022/03/16 11:41:43;;;;;;;;;40.33;34.33;;;;;17.54;70.53;101113.50;6197744;23;45393;-86
2022/03/16 11:44:28;;;;;;;;;38.00;34.00;;;;;17.71;70.59;101116.91;6289495;22;45445;-84
2022/03/16 11:47:22;;;;;;;;;36.67;35.67;;;;;17.69;70.83;101112.44;6259443;22;45394;-84
2022/03/16 11:50:13;;;;;;;;;46.67;37.00;;;;;17.87;68.55;101111.41;6291944;22;45427;-86
2022/03/16 11:53:25;;;;;;;;;41.00;36.33;;;;;17.97;70.51;101103.22;6297467;22;45695;-87
2022/03/16 11:56:47;;;;;;;;;44.00;34.33;;;;;18.04;66.89;101108.53;6176707;22;45285;-85
2022/03/16 11:59:46;;;;;;;;;43.33;34.67;;;;;18.11;68.76;101099.50;6175077;23;46243;-86
2022/03/16 12:02:40;;;;;;;;;37.33;35.00;;;;;18.16;68.03;101087.78;6033039;23;44744;-84
2022/03/16 12:06:15;;;;;;;;;44.67;37.00;;;;;18.34;67.94;101091.13;6081145;23;45385;-87
2022/03/16 12:25:27;;;;;;;;;43.33;37.33;;;;;18.66;65.22;101052.13;6209904;22;47278;-86
2022/03/16 12:32:04;;;;;;;;;42.33;37.00;;;;;18.83;64.81;101036.63;6258469;22;45350;-87
2022/03/16 12:38:27;;;;;;;;;;;;;;;;;;;;;
2022/03/16 12:44:29;;;;;;;;;37.00;35.33;;;;;18.68;63.56;100989.22;6138665;23;45301;-85